Time;durP1;ratioP1;P1;durP2;ratioP2;P2;SDS_P1;SDS_P2;PMS_P1;PMS_P2;Temp;Humidity;BMP_temperature;BMP_pressure;BME280_temperature;BME280_humidity;BME280_pressure;Samples;Min_cycle;Max_cycle;Signal;HPM_P1;HPM_P2
2022/11/26 00:00:44;;;;;;;22.20;6.68;;;;;;;;;;5038694;28;20052;-66
2022/11/26 00:03:11;;;;;;;31.23;7.70;;;;;;;;;;5039886;28;20082;-66
2022/11/26 00:05:37;;;;;;;22.75;7.22;;;;;;;;;;5042506;28;21042;-66
2022/11/26 00:08:03;;;;;;;27.08;7.75;;;;;;;;;;5041467;28;20067;-66
2022/11/26 00:10:34;;;;;;;24.33;6.93;;;;;;;;;;5046680;28;20547;-66
2022/11/26 00:13:00;;;;;;;21.25;6.95;;;;;;;;;;5047585;28;20049;-66
2022/11/26 00:15:28;;;;;;;21.27;6.88;;;;;;;;;;5051289;28;20087;-66
2022/11/26 00:17:55;;;;;;;21.73;6.82;;;;;;;;;;5047335;28;20040;-65
2022/11/26 00:20:27;;;;;;;34.67;8.00;;;;;;;;;;5052810;28;20068;-66
2022/11/26 00:22:54;;;;;;;27.88;6.70;;;;;;;;;;5047804;28;20062;-66
2022/11/26 00:25:22;;;;;;;18.48;6.18;;;;;;;;;;5051905;28;20036;-66
2022/11/26 00:27:48;;;;;;;24.83;7.00;;;;;;;;;;5051952;28;20128;-66
2022/11/26 00:30:16;;;;;;;23.92;6.75;;;;;;;;;;5052123;28;20073;-66
2022/11/26 00:32:42;;;;;;;24.73;6.40;;;;;;;;;;5050604;28;20040;-66
2022/11/26 00:35:08;;;;;;;21.77;7.05;;;;;;;;;;5048874;28;20048;-66
2022/11/26 00:37:40;;;;;;;28.85;7.55;;;;;;;;;;5050618;28;20048;-64
2022/11/26 00:40:07;;;;;;;21.73;7.72;;;;;;;;;;5048802;28;20049;-66
2022/11/26 00:42:33;;;;;;;25.83;7.25;;;;;;;;;;5059800;28;20055;-66
2022/11/26 00:44:59;;;;;;;21.50;7.32;;;;;;;;;;5047536;28;20052;-66
2022/11/26 00:47:25;;;;;;;30.38;8.25;;;;;;;;;;5046240;28;20098;-66
2022/11/26 00:49:51;;;;;;;26.52;7.38;;;;;;;;;;5047768;28;20044;-66
2022/11/26 00:52:34;;;;;;;24.75;6.90;;;;;;;;;;5047771;28;20344;-66
2022/11/26 00:55:02;;;;;;;24.42;8.15;;;;;;;;;;5054203;28;20048;-66
2022/11/26 00:57:28;;;;;;;33.45;7.88;;;;;;;;;;5049664;28;20056;-68
2022/11/26 00:59:54;;;;;;;29.40;6.80;;;;;;;;;;5035270;28;20074;-66
2022/11/26 01:02:21;;;;;;;28.42;8.10;;;;;;;;;;5051834;28;20045;-66
2022/11/26 01:04:47;;;;;;;28.65;7.75;;;;;;;;;;5051856;28;20071;-65
2022/11/26 01:07:13;;;;;;;33.78;7.10;;;;;;;;;;5054770;28;20408;-67
2022/11/26 01:09:40;;;;;;;24.05;6.95;;;;;;;;;;5053904;28;20063;-66
2022/11/26 01:12:11;;;;;;;23.40;8.20;;;;;;;;;;5049075;28;20170;-67
2022/11/26 01:14:37;;;;;;;28.88;8.15;;;;;;;;;;5051303;28;20103;-66
2022/11/26 01:17:05;;;;;;;30.05;7.25;;;;;;;;;;5051634;28;20051;-67
2022/11/26 01:19:31;;;;;;;38.80;7.93;;;;;;;;;;5051359;28;20052;-66
2022/11/26 01:21:57;;;;;;;28.73;8.73;;;;;;;;;;5049441;28;20033;-66
2022/11/26 01:24:23;;;;;;;27.95;7.82;;;;;;;;;;5052186;28;20104;-66
2022/11/26 01:26:49;;;;;;;27.45;7.88;;;;;;;;;;5046177;28;20072;-66
2022/11/26 01:29:16;;;;;;;30.08;8.15;;;;;;;;;;5050251;28;20056;-66
2022/11/26 01:31:42;;;;;;;26.88;8.38;;;;;;;;;;5047677;28;20040;-65
2022/11/26 01:34:08;;;;;;;24.13;7.25;;;;;;;;;;5047180;28;20493;-65
2022/11/26 01:36:35;;;;;;;25.52;8.00;;;;;;;;;;5046958;28;20539;-65
2022/11/26 01:39:04;;;;;;;29.23;8.23;;;;;;;;;;5046806;28;20041;-65
2022/11/26 01:41:45;;;;;;;33.92;8.07;;;;;;;;;;5044610;28;20051;-65
2022/11/26 01:44:19;;;;;;;31.75;8.95;;;;;;;;;;5047470;28;20131;-65
2022/11/26 01:46:48;;;;;;;40.25;10.05;;;;;;;;;;5046861;28;20052;-66
2022/11/26 01:49:16;;;;;;;25.30;7.50;;;;;;;;;;5048911;28;20104;-66
2022/11/26 01:51:42;;;;;;;39.65;8.60;;;;;;;;;;5044719;28;20127;-65
2022/11/26 01:54:09;;;;;;;31.95;7.70;;;;;;;;;;5045014;28;20151;-65
2022/11/26 01:56:40;;;;;;;25.30;7.75;;;;;;;;;;5028650;28;20664;-66
2022/11/26 01:59:08;;;;;;;33.10;8.27;;;;;;;;;;5048690;28;20048;-65
2022/11/26 02:01:35;;;;;;;30.08;8.20;;;;;;;;;;5041346;28;20059;-66
2022/11/26 02:04:04;;;;;;;31.85;7.75;;;;;;;;;;5047239;28;20194;-65
2022/11/26 02:06:32;;;;;;;32.20;7.72;;;;;;;;;;5049319;28;20040;-65
2022/11/26 02:09:00;;;;;;;19.95;7.80;;;;;;;;;;5048140;28;20083;-65
2022/11/26 02:11:27;;;;;;;23.00;8.90;;;;;;;;;;5046844;28;20063;-65
2022/11/26 02:13:59;;;;;;;28.00;8.30;;;;;;;;;;5045724;28;20048;-65
2022/11/26 02:16:36;;;;;;;29.50;8.65;;;;;;;;;;5046785;28;20137;-65
2022/11/26 02:19:16;;;;;;;21.35;7.82;;;;;;;;;;5047088;28;20048;-66
2022/11/26 02:21:47;;;;;;;27.50;8.48;;;;;;;;;;5041922;28;20923;-65
2022/11/26 02:24:34;;;;;;;35.63;8.48;;;;;;;;;;5044109;28;20109;-65
2022/11/26 02:27:03;;;;;;;27.58;9.23;;;;;;;;;;5040639;28;20033;-65
2022/11/26 02:29:36;;;;;;;32.95;8.40;;;;;;;;;;5047360;28;20041;-65
2022/11/26 02:32:02;;;;;;;29.42;7.78;;;;;;;;;;5053994;28;22223;-66
2022/11/26 02:34:40;;;;;;;21.48;8.20;;;;;;;;;;5044831;28;20049;-66
2022/11/26 02:37:12;;;;;;;25.38;9.13;;;;;;;;;;5044640;28;20628;-65
2022/11/26 02:39:38;;;;;;;29.08;9.13;;;;;;;;;;5048287;28;20074;-66
2022/11/26 02:42:20;;;;;;;25.45;9.68;;;;;;;;;;5045486;28;20053;-66
2022/11/26 02:44:46;;;;;;;28.30;10.80;;;;;;;;;;5046054;28;20040;-65
2022/11/26 02:47:14;;;;;;;38.75;10.73;;;;;;;;;;5043829;28;20044;-66
2022/11/26 02:49:42;;;;;;;37.17;9.85;;;;;;;;;;5049827;28;20040;-65
2022/11/26 02:52:09;;;;;;;34.00;10.55;;;;;;;;;;5035356;28;20052;-66
2022/11/26 02:54:36;;;;;;;41.83;10.85;;;;;;;;;;5048111;28;20044;-65
2022/11/26 02:57:03;;;;;;;27.02;9.70;;;;;;;;;;5051569;28;20094;-66
2022/11/26 02:59:29;;;;;;;32.45;10.32;;;;;;;;;;5060353;28;20112;-66
2022/11/26 03:02:16;;;;;;;33.92;10.45;;;;;;;;;;5049684;28;20072;-65
2022/11/26 03:04:45;;;;;;;28.38;10.02;;;;;;;;;;5047383;28;20057;-66
2022/11/26 03:07:13;;;;;;;30.48;10.73;;;;;;;;;;5050907;28;20613;-64
2022/11/26 03:09:58;;;;;;;41.20;12.65;;;;;;;;;;5054668;28;20057;-66
2022/11/26 03:12:25;;;;;;;31.40;10.13;;;;;;;;;;5052720;28;20057;-65
2022/11/26 03:14:51;;;;;;;32.33;11.45;;;;;;;;;;5052704;28;20071;-66
2022/11/26 03:17:17;;;;;;;29.98;10.13;;;;;;;;;;5050717;28;20941;-65
2022/11/26 03:19:44;;;;;;;41.10;11.93;;;;;;;;;;5051510;28;20063;-65
2022/11/26 03:22:10;;;;;;;37.45;13.80;;;;;;;;;;5048519;28;20041;-65
2022/11/26 03:24:36;;;;;;;27.13;11.57;;;;;;;;;;5050735;28;20064;-65
2022/11/26 03:27:03;;;;;;;34.38;11.95;;;;;;;;;;5047955;28;20054;-66
2022/11/26 03:29:29;;;;;;;30.95;11.98;;;;;;;;;;5047338;28;20094;-65
2022/11/26 03:31:55;;;;;;;29.70;12.82;;;;;;;;;;5047787;28;20108;-66
2022/11/26 03:34:21;;;;;;;34.05;12.93;;;;;;;;;;5046360;28;20041;-65
2022/11/26 03:36:47;;;;;;;35.63;12.30;;;;;;;;;;5040400;28;20109;-65
2022/11/26 03:39:13;;;;;;;31.35;12.02;;;;;;;;;;5048532;28;20144;-65
2022/11/26 03:41:42;;;;;;;38.60;12.00;;;;;;;;;;5044620;28;20657;-66
2022/11/26 03:44:09;;;;;;;31.52;11.45;;;;;;;;;;5046929;28;20456;-65
2022/11/26 03:46:35;;;;;;;33.90;11.90;;;;;;;;;;5046547;28;20068;-65
2022/11/26 03:49:01;;;;;;;30.88;11.60;;;;;;;;;;5043892;28;20173;-65
2022/11/26 03:51:27;;;;;;;34.58;12.32;;;;;;;;;;5042125;28;20151;-65
2022/11/26 03:53:53;;;;;;;37.08;12.00;;;;;;;;;;5047585;28;20194;-66
2022/11/26 03:56:19;;;;;;;43.58;13.13;;;;;;;;;;5045137;28;20060;-66
2022/11/26 03:58:45;;;;;;;33.92;11.80;;;;;;;;;;5025079;28;20108;-66
2022/11/26 04:01:12;;;;;;;38.35;13.18;;;;;;;;;;5046306;28;20059;-66
2022/11/26 04:03:38;;;;;;;39.65;13.77;;;;;;;;;;5045432;28;20052;-66
2022/11/26 04:06:04;;;;;;;33.63;12.85;;;;;;;;;;5048817;28;20043;-66
2022/11/26 04:08:31;;;;;;;40.58;12.57;;;;;;;;;;5047026;28;20101;-66
2022/11/26 04:10:57;;;;;;;29.10;12.15;;;;;;;;;;5043449;28;20040;-66
2022/11/26 04:13:23;;;;;;;36.67;12.48;;;;;;;;;;5046867;28;20049;-66
2022/11/26 04:15:49;;;;;;;35.78;13.05;;;;;;;;;;5045344;28;20056;-66
2022/11/26 04:18:15;;;;;;;38.15;12.75;;;;;;;;;;5046730;28;20478;-67
2022/11/26 04:20:41;;;;;;;42.45;14.35;;;;;;;;;;5046964;28;20048;-66
2022/11/26 04:23:07;;;;;;;35.92;13.43;;;;;;;;;;5042010;28;20041;-66
2022/11/26 04:25:34;;;;;;;39.95;12.32;;;;;;;;;;5046631;28;20044;-66
2022/11/26 04:28:00;;;;;;;38.40;14.27;;;;;;;;;;5056027;28;20139;-65
2022/11/26 04:30:26;;;;;;;39.10;12.13;;;;;;;;;;5028135;28;20412;-66
2022/11/26 04:32:52;;;;;;;29.17;12.77;;;;;;;;;;5043558;28;20059;-65
2022/11/26 04:35:18;;;;;;;38.72;13.35;;;;;;;;;;5042307;28;20055;-65
2022/11/26 04:37:44;;;;;;;39.65;12.40;;;;;;;;;;5047526;28;20037;-66
2022/11/26 04:40:11;;;;;;;32.80;12.15;;;;;;;;;;5047226;28;20062;-66
2022/11/26 04:42:37;;;;;;;31.05;11.70;;;;;;;;;;5046293;28;21022;-66
2022/11/26 04:45:03;;;;;;;29.02;11.15;;;;;;;;;;5043253;28;20094;-66
2022/11/26 04:47:29;;;;;;;40.85;13.45;;;;;;;;;;5044854;28;22113;-66
2022/11/26 04:49:55;;;;;;;33.85;12.35;;;;;;;;;;5047603;28;20044;-66
2022/11/26 04:52:21;;;;;;;39.50;13.57;;;;;;;;;;5046425;28;20059;-66
2022/11/26 04:54:47;;;;;;;33.60;12.23;;;;;;;;;;5048788;28;20048;-66
2022/11/26 04:57:14;;;;;;;34.83;15.10;;;;;;;;;;5048837;28;20056;-66
2022/11/26 04:59:40;;;;;;;38.28;13.27;;;;;;;;;;5043900;28;20075;-66
2022/11/26 05:02:06;;;;;;;40.97;12.75;;;;;;;;;;5046129;28;20062;-66
2022/11/26 05:04:32;;;;;;;39.03;13.63;;;;;;;;;;5049084;28;20051;-65
2022/11/26 05:06:58;;;;;;;36.80;13.15;;;;;;;;;;5045621;28;20103;-66
2022/11/26 05:09:24;;;;;;;46.53;14.45;;;;;;;;;;5045054;28;20356;-66
2022/11/26 05:11:50;;;;;;;32.55;13.32;;;;;;;;;;5045152;28;20049;-65
2022/11/26 05:14:17;;;;;;;42.67;15.35;;;;;;;;;;5045470;28;20046;-66
2022/11/26 05:16:43;;;;;;;44.38;15.13;;;;;;;;;;5042918;28;20044;-66
2022/11/26 05:19:10;;;;;;;33.97;14.45;;;;;;;;;;5036574;28;20037;-66
2022/11/26 05:21:36;;;;;;;41.35;15.48;;;;;;;;;;5045642;28;20032;-65
2022/11/26 05:24:02;;;;;;;52.40;14.32;;;;;;;;;;5052226;28;20127;-65
2022/11/26 05:26:28;;;;;;;42.55;13.98;;;;;;;;;;5045687;28;20121;-66
2022/11/26 05:28:54;;;;;;;46.25;15.38;;;;;;;;;;5053034;28;22293;-66
2022/11/26 05:31:20;;;;;;;42.55;15.68;;;;;;;;;;5045958;28;22685;-65
2022/11/26 05:33:46;;;;;;;41.03;16.33;;;;;;;;;;5049032;28;20087;-65
2022/11/26 05:36:12;;;;;;;47.25;15.73;;;;;;;;;;5031786;28;20087;-65
2022/11/26 05:38:38;;;;;;;37.28;15.95;;;;;;;;;;5042819;28;20044;-66
2022/11/26 05:41:04;;;;;;;43.97;14.73;;;;;;;;;;5050938;28;21972;-66
2022/11/26 05:43:30;;;;;;;46.70;15.85;;;;;;;;;;5059052;28;20048;-66
2022/11/26 05:45:56;;;;;;;42.38;16.90;;;;;;;;;;5046192;28;20610;-66
2022/11/26 05:48:22;;;;;;;40.90;14.63;;;;;;;;;;5047705;28;20108;-66
2022/11/26 05:50:48;;;;;;;39.33;15.32;;;;;;;;;;5050726;28;20052;-66
2022/11/26 05:53:15;;;;;;;42.40;17.38;;;;;;;;;;5051336;28;20075;-66
2022/11/26 05:55:41;;;;;;;39.65;15.32;;;;;;;;;;5049562;28;20051;-66
2022/11/26 05:58:08;;;;;;;30.40;14.43;;;;;;;;;;5051398;28;20081;-66
2022/11/26 06:00:34;;;;;;;45.53;15.45;;;;;;;;;;5047458;28;20057;-66
2022/11/26 06:03:00;;;;;;;34.50;14.27;;;;;;;;;;5049655;28;20636;-66
2022/11/26 06:05:26;;;;;;;42.95;15.65;;;;;;;;;;5047467;28;20086;-65
2022/11/26 06:07:53;;;;;;;36.58;17.15;;;;;;;;;;5050840;28;20040;-67
2022/11/26 06:10:19;;;;;;;37.47;17.42;;;;;;;;;;5052471;28;20565;-67
2022/11/26 06:12:45;;;;;;;48.65;16.95;;;;;;;;;;5047788;28;20044;-67
2022/11/26 06:15:11;;;;;;;52.90;18.02;;;;;;;;;;5046562;28;20064;-66
2022/11/26 06:17:37;;;;;;;41.20;17.67;;;;;;;;;;5045367;28;20068;-67
2022/11/26 06:20:04;;;;;;;45.45;17.30;;;;;;;;;;5044174;28;20049;-67
2022/11/26 06:22:30;;;;;;;41.08;18.08;;;;;;;;;;5049689;28;20045;-66
2022/11/26 06:24:56;;;;;;;42.40;17.88;;;;;;;;;;5043105;28;20489;-66
2022/11/26 06:27:22;;;;;;;47.92;18.05;;;;;;;;;;5041617;28;20045;-66
2022/11/26 06:29:48;;;;;;;42.13;17.77;;;;;;;;;;5042471;28;20044;-66
2022/11/26 06:32:14;;;;;;;40.42;18.63;;;;;;;;;;5042651;28;20135;-66
2022/11/26 06:34:40;;;;;;;37.53;18.65;;;;;;;;;;5046208;28;21933;-66
2022/11/26 06:37:06;;;;;;;46.20;17.08;;;;;;;;;;5049010;28;20059;-66
2022/11/26 06:39:32;;;;;;;39.25;16.40;;;;;;;;;;5049645;28;20052;-66
2022/11/26 06:41:58;;;;;;;44.13;17.95;;;;;;;;;;5045490;28;20108;-66
2022/11/26 06:44:24;;;;;;;41.63;17.33;;;;;;;;;;5051097;28;20053;-66
2022/11/26 06:46:50;;;;;;;48.05;19.48;;;;;;;;;;5052489;28;20116;-66
2022/11/26 06:49:16;;;;;;;37.58;17.98;;;;;;;;;;5050367;28;20055;-65
2022/11/26 06:51:42;;;;;;;46.75;18.92;;;;;;;;;;5049792;28;20495;-66
2022/11/26 06:54:09;;;;;;;45.33;18.00;;;;;;;;;;5050606;28;20115;-67
2022/11/26 06:56:35;;;;;;;42.08;19.42;;;;;;;;;;5045415;28;20121;-66
2022/11/26 06:59:01;;;;;;;47.28;18.92;;;;;;;;;;5051012;28;20064;-66
2022/11/26 07:01:28;;;;;;;49.13;19.55;;;;;;;;;;5047304;28;20509;-66
2022/11/26 07:03:54;;;;;;;52.33;20.35;;;;;;;;;;5049599;28;20576;-66
2022/11/26 07:06:28;;;;;;;43.50;18.15;;;;;;;;;;5050624;28;20064;-66
2022/11/26 07:08:55;;;;;;;42.58;17.92;;;;;;;;;;5047338;28;20052;-66
2022/11/26 07:11:22;;;;;;;44.85;20.20;;;;;;;;;;5053761;28;20136;-67
2022/11/26 07:13:48;;;;;;;41.63;19.42;;;;;;;;;;5047318;28;20056;-66
2022/11/26 07:16:15;;;;;;;38.95;18.17;;;;;;;;;;5048935;28;20048;-66
2022/11/26 07:18:41;;;;;;;55.33;20.35;;;;;;;;;;5046185;28;20039;-66
2022/11/26 07:21:08;;;;;;;45.97;20.35;;;;;;;;;;5048067;28;20074;-66
2022/11/26 07:23:34;;;;;;;52.13;21.75;;;;;;;;;;5049261;28;20144;-64
2022/11/26 07:26:01;;;;;;;41.70;19.40;;;;;;;;;;5053099;28;20127;-66
2022/11/26 07:28:27;;;;;;;51.40;20.90;;;;;;;;;;5049574;28;20595;-66
2022/11/26 07:30:53;;;;;;;53.03;21.70;;;;;;;;;;5030467;28;20052;-67
2022/11/26 07:33:19;;;;;;;64.57;22.85;;;;;;;;;;5051342;28;20055;-67
2022/11/26 07:35:45;;;;;;;43.45;22.10;;;;;;;;;;5050039;28;20036;-66
2022/11/26 07:38:11;;;;;;;46.05;21.33;;;;;;;;;;5049360;28;20059;-66
2022/11/26 07:40:37;;;;;;;50.22;22.83;;;;;;;;;;5051685;28;20058;-66
2022/11/26 07:43:04;;;;;;;52.60;22.80;;;;;;;;;;5053737;28;20048;-67
2022/11/26 07:45:30;;;;;;;42.80;21.08;;;;;;;;;;5044412;28;20056;-66
2022/11/26 07:47:56;;;;;;;48.05;22.38;;;;;;;;;;5047439;28;20395;-67
2022/11/26 07:50:22;;;;;;;50.90;21.25;;;;;;;;;;5060682;28;20044;-66
2022/11/26 07:52:51;;;;;;;54.20;21.77;;;;;;;;;;5050562;28;20060;-66
2022/11/26 07:55:17;;;;;;;45.30;22.63;;;;;;;;;;5051373;28;20071;-67
2022/11/26 07:57:43;;;;;;;44.28;23.20;;;;;;;;;;5052262;28;20101;-67
2022/11/26 08:00:09;;;;;;;50.42;24.48;;;;;;;;;;5048960;28;20052;-66
2022/11/26 08:02:35;;;;;;;49.00;22.90;;;;;;;;;;5056906;28;21277;-65
2022/11/26 08:05:01;;;;;;;48.78;24.30;;;;;;;;;;5051011;28;20040;-65
2022/11/26 08:07:27;;;;;;;61.30;25.80;;;;;;;;;;5050197;28;20052;-66
2022/11/26 08:09:54;;;;;;;56.33;27.30;;;;;;;;;;5050341;28;20049;-66
2022/11/26 08:12:20;;;;;;;54.50;28.88;;;;;;;;;;5054335;28;20104;-65
2022/11/26 08:14:46;;;;;;;64.95;31.42;;;;;;;;;;5049569;28;20032;-66
2022/11/26 08:17:12;;;;;;;55.45;30.33;;;;;;;;;;5048898;28;20044;-65
2022/11/26 08:19:38;;;;;;;64.72;29.85;;;;;;;;;;5051058;28;20047;-66
2022/11/26 08:22:04;;;;;;;61.15;31.15;;;;;;;;;;5048552;28;20036;-66
2022/11/26 08:24:30;;;;;;;63.97;30.65;;;;;;;;;;5047824;28;20049;-66
2022/11/26 08:26:59;;;;;;;55.35;29.15;;;;;;;;;;5048948;28;20100;-66
2022/11/26 08:29:25;;;;;;;67.55;30.25;;;;;;;;;;5050757;28;20048;-65
2022/11/26 08:31:51;;;;;;;58.53;28.50;;;;;;;;;;5049647;28;23274;-67
2022/11/26 08:34:17;;;;;;;55.25;28.23;;;;;;;;;;5048303;28;20044;-66
2022/11/26 08:36:44;;;;;;;51.70;27.38;;;;;;;;;;5044179;28;20050;-66
2022/11/26 08:39:16;;;;;;;54.15;28.05;;;;;;;;;;5044683;28;20051;-66
2022/11/26 08:41:42;;;;;;;52.60;27.95;;;;;;;;;;5044465;28;20059;-66
2022/11/26 08:44:08;;;;;;;63.03;28.17;;;;;;;;;;5049837;28;20108;-67
2022/11/26 08:46:38;;;;;;;57.50;29.08;;;;;;;;;;5048000;28;20049;-67
2022/11/26 08:49:05;;;;;;;73.18;30.58;;;;;;;;;;5048131;28;20044;-67
2022/11/26 08:51:32;;;;;;;93.63;32.17;;;;;;;;;;5029922;28;20052;-68
2022/11/26 08:53:59;;;;;;;79.43;29.85;;;;;;;;;;5047821;28;20544;-67
2022/11/26 08:56:25;;;;;;;104.60;30.90;;;;;;;;;;5048674;28;20053;-68
2022/11/26 08:58:51;;;;;;;136.05;34.70;;;;;;;;;;5046949;28;20608;-66
2022/11/26 09:01:19;;;;;;;161.05;36.25;;;;;;;;;;5044538;28;20782;-66
2022/11/26 09:03:50;;;;;;;120.97;33.00;;;;;;;;;;5046079;28;20055;-65
2022/11/26 09:06:17;;;;;;;97.40;35.30;;;;;;;;;;5038624;28;20045;-66
2022/11/26 09:11:28;;;;;;;67.30;32.30;;;;;;;;;;5050597;28;20052;-66
2022/11/26 09:13:54;;;;;;;67.38;33.63;;;;;;;;;;5048774;28;20116;-66
2022/11/26 09:16:21;;;;;;;67.13;35.17;;;;;;;;;;5052090;28;20515;-66
2022/11/26 09:18:47;;;;;;;63.33;33.45;;;;;;;;;;5050326;28;20044;-66
2022/11/26 09:21:13;;;;;;;66.63;34.50;;;;;;;;;;5046228;28;20201;-67
2022/11/26 09:23:39;;;;;;;64.35;32.80;;;;;;;;;;5049422;28;20049;-67
2022/11/26 09:26:05;;;;;;;54.70;29.75;;;;;;;;;;5047664;28;20040;-67
2022/11/26 09:28:31;;;;;;;68.90;31.65;;;;;;;;;;5051090;28;20051;-67
2022/11/26 09:30:58;;;;;;;64.35;31.25;;;;;;;;;;5045024;28;20040;-66
2022/11/26 09:33:24;;;;;;;56.17;30.95;;;;;;;;;;5050201;28;20063;-66
2022/11/26 09:35:50;;;;;;;64.35;32.80;;;;;;;;;;5045986;28;20072;-66
2022/11/26 09:38:16;;;;;;;55.35;29.02;;;;;;;;;;5053262;28;20064;-66
2022/11/26 09:40:53;;;;;;;63.08;30.98;;;;;;;;;;5048278;28;20083;-66
2022/11/26 09:43:27;;;;;;;52.70;29.85;;;;;;;;;;5050126;28;20550;-67
2022/11/26 09:45:57;;;;;;;48.30;26.88;;;;;;;;;;5045539;28;20084;-66
2022/11/26 09:48:24;;;;;;;55.15;30.38;;;;;;;;;;5047343;28;20763;-66
2022/11/26 09:50:52;;;;;;;59.15;27.80;;;;;;;;;;5048424;28;21127;-66
2022/11/26 09:53:24;;;;;;;63.72;28.42;;;;;;;;;;5050588;28;20044;-67
2022/11/26 09:55:52;;;;;;;47.35;25.20;;;;;;;;;;5048919;28;20060;-65
2022/11/26 09:58:26;;;;;;;59.08;28.42;;;;;;;;;;5049947;28;20281;-68
2022/11/26 10:00:54;;;;;;;45.65;27.17;;;;;;;;;;5049484;28;20032;-66
2022/11/26 10:03:21;;;;;;;49.08;27.05;;;;;;;;;;5050315;28;20044;-64
2022/11/26 10:06:05;;;;;;;51.15;26.10;;;;;;;;;;5045604;28;20123;-66
2022/11/26 10:08:31;;;;;;;40.50;21.93;;;;;;;;;;5045036;28;20052;-66
2022/11/26 10:11:20;;;;;;;43.95;23.90;;;;;;;;;;5043858;28;20112;-65
2022/11/26 10:13:58;;;;;;;51.40;24.27;;;;;;;;;;5045247;28;20116;-65
2022/11/26 10:16:28;;;;;;;41.83;18.45;;;;;;;;;;5046641;28;23301;-66
2022/11/26 10:18:54;;;;;;;39.83;18.88;;;;;;;;;;5048240;28;20139;-67
2022/11/26 10:21:25;;;;;;;33.60;16.55;;;;;;;;;;5056639;28;20036;-67
2022/11/26 10:24:03;;;;;;;35.13;18.60;;;;;;;;;;5051666;28;20044;-67
2022/11/26 10:26:32;;;;;;;31.40;15.90;;;;;;;;;;5052377;28;20055;-67
2022/11/26 10:29:20;;;;;;;29.25;15.90;;;;;;;;;;5055609;28;20036;-67
2022/11/26 10:31:47;;;;;;;27.42;15.60;;;;;;;;;;5057165;28;20093;-67
2022/11/26 10:34:18;;;;;;;25.83;14.02;;;;;;;;;;5037378;28;20154;-67
2022/11/26 10:36:46;;;;;;;28.63;14.45;;;;;;;;;;5056236;28;20104;-66
2022/11/26 10:39:13;;;;;;;31.35;13.70;;;;;;;;;;5055983;28;20177;-66
2022/11/26 10:41:39;;;;;;;40.92;15.32;;;;;;;;;;5052665;28;20056;-67
2022/11/26 10:44:44;;;;;;;24.88;13.50;;;;;;;;;;5051141;28;20073;-66
2022/11/26 10:47:25;;;;;;;28.98;14.65;;;;;;;;;;5007427;28;20121;-67
2022/11/26 10:50:03;;;;;;;25.52;13.50;;;;;;;;;;5003272;28;20053;-67
2022/11/26 10:52:31;;;;;;;36.10;13.25;;;;;;;;;;5035551;28;20070;-66
2022/11/26 10:55:18;;;;;;;35.83;15.98;;;;;;;;;;5044659;28;20058;-66
2022/11/26 10:57:49;;;;;;;37.30;15.95;;;;;;;;;;5047704;28;20585;-66
2022/11/26 11:00:35;;;;;;;36.95;15.27;;;;;;;;;;5049650;28;20056;-66
2022/11/26 11:03:02;;;;;;;36.80;16.33;;;;;;;;;;5050600;28;20450;-66
2022/11/26 11:05:28;;;;;;;34.40;14.32;;;;;;;;;;5050517;28;20298;-67
2022/11/26 11:07:54;;;;;;;36.75;15.88;;;;;;;;;;5050856;28;20059;-67
2022/11/26 11:10:23;;;;;;;34.45;15.07;;;;;;;;;;5047662;28;20045;-66
2022/11/26 11:12:50;;;;;;;39.90;16.45;;;;;;;;;;5049091;28;20478;-67
2022/11/26 11:15:24;;;;;;;38.95;15.45;;;;;;;;;;5047933;28;20054;-66
2022/11/26 11:18:05;;;;;;;37.78;15.20;;;;;;;;;;5031686;28;21981;-67
2022/11/26 11:20:34;;;;;;;33.08;13.82;;;;;;;;;;5048051;28;20056;-66
2022/11/26 11:23:05;;;;;;;31.48;13.85;;;;;;;;;;5049694;28;20424;-66
2022/11/26 11:25:33;;;;;;;31.60;14.85;;;;;;;;;;5051919;28;20059;-66
2022/11/26 11:28:01;;;;;;;36.45;16.65;;;;;;;;;;5052893;28;20083;-67
2022/11/26 11:30:31;;;;;;;35.17;15.73;;;;;;;;;;5045575;28;23382;-66
2022/11/26 11:33:08;;;;;;;38.17;16.30;;;;;;;;;;5048674;28;20681;-67
2022/11/26 11:35:34;;;;;;;37.25;15.55;;;;;;;;;;5046213;28;20043;-67
2022/11/26 11:38:01;;;;;;;33.72;17.33;;;;;;;;;;5048839;28;22026;-68
2022/11/26 11:40:29;;;;;;;40.80;16.70;;;;;;;;;;5047600;28;22315;-67
2022/11/26 11:43:05;;;;;;;32.35;17.08;;;;;;;;;;5049988;28;21255;-69
2022/11/26 11:45:40;;;;;;;42.70;17.88;;;;;;;;;;5052141;28;20154;-67
2022/11/26 11:48:09;;;;;;;36.13;17.48;;;;;;;;;;5044365;28;20637;-67
2022/11/26 11:50:40;;;;;;;39.70;16.98;;;;;;;;;;5048928;28;20052;-67
2022/11/26 11:53:15;;;;;;;37.72;16.95;;;;;;;;;;5047054;28;20478;-67
2022/11/26 11:56:05;;;;;;;44.05;18.73;;;;;;;;;;5051390;28;20139;-68
2022/11/26 11:58:37;;;;;;;41.95;18.17;;;;;;;;;;5043452;28;20061;-68
2022/11/26 12:01:21;;;;;;;39.97;18.50;;;;;;;;;;5054755;28;20075;-67
2022/11/26 12:03:58;;;;;;;35.42;17.80;;;;;;;;;;5052820;28;20052;-67
2022/11/26 12:06:52;;;;;;;41.78;18.98;;;;;;;;;;5055066;28;20044;-68
2022/11/26 12:09:18;;;;;;;34.42;17.65;;;;;;;;;;5051230;28;20059;-67
2022/11/26 12:11:58;;;;;;;41.10;20.42;;;;;;;;;;5049233;28;20044;-66
2022/11/26 12:14:27;;;;;;;40.97;20.92;;;;;;;;;;5047867;28;20725;-68
2022/11/26 12:16:56;;;;;;;39.53;19.67;;;;;;;;;;5050379;28;20586;-68
2022/11/26 12:19:41;;;;;;;35.90;19.52;;;;;;;;;;5053366;28;20056;-68
2022/11/26 12:22:07;;;;;;;45.67;22.70;;;;;;;;;;5045125;28;20094;-68
2022/11/26 12:24:40;;;;;;;49.33;22.33;;;;;;;;;;5039475;28;20048;-68
2022/11/26 12:27:11;;;;;;;36.85;20.63;;;;;;;;;;5044920;28;20064;-68
2022/11/26 12:29:37;;;;;;;52.25;22.17;;;;;;;;;;5045566;28;20051;-68
2022/11/26 12:32:10;;;;;;;36.70;21.90;;;;;;;;;;5044199;28;20037;-68
2022/11/26 12:35:02;;;;;;;48.28;22.13;;;;;;;;;;5048364;28;20059;-68
2022/11/26 12:37:32;;;;;;;44.70;23.38;;;;;;;;;;5035494;28;20086;-68
2022/11/26 12:40:17;;;;;;;44.35;21.65;;;;;;;;;;5051940;28;20048;-68
2022/11/26 12:42:44;;;;;;;49.63;23.08;;;;;;;;;;5052081;28;20064;-69
2022/11/26 12:45:31;;;;;;;46.67;21.65;;;;;;;;;;5053868;28;20048;-69
2022/11/26 12:48:02;;;;;;;37.20;21.45;;;;;;;;;;5057148;28;20144;-68
2022/11/26 12:50:34;;;;;;;41.70;21.27;;;;;;;;;;5058755;28;20063;-68
2022/11/26 12:53:04;;;;;;;45.42;22.30;;;;;;;;;;5056827;28;20083;-68
2022/11/26 12:55:48;;;;;;;45.50;22.52;;;;;;;;;;5053457;28;20044;-68
2022/11/26 12:58:20;;;;;;;52.33;23.38;;;;;;;;;;5053944;28;20058;-69
2022/11/26 13:00:48;;;;;;;49.78;22.80;;;;;;;;;;5058765;28;20059;-69
2022/11/26 13:03:16;;;;;;;52.72;26.67;;;;;;;;;;5057113;28;20091;-69
2022/11/26 13:05:42;;;;;;;48.45;26.02;;;;;;;;;;5050351;28;20044;-69
2022/11/26 13:08:10;;;;;;;57.75;27.85;;;;;;;;;;5054521;28;20087;-69
2022/11/26 13:10:49;;;;;;;61.42;27.60;;;;;;;;;;5035628;28;20051;-68
2022/11/26 13:13:34;;;;;;;49.55;26.95;;;;;;;;;;5045208;28;20194;-68
2022/11/26 13:16:17;;;;;;;55.45;27.75;;;;;;;;;;5049131;28;20044;-69
2022/11/26 13:18:45;;;;;;;56.15;25.83;;;;;;;;;;5049489;28;20052;-68
2022/11/26 13:21:12;;;;;;;50.15;23.48;;;;;;;;;;5048288;28;20048;-67
2022/11/26 13:23:59;;;;;;;50.40;25.98;;;;;;;;;;5047038;28;20202;-67
2022/11/26 13:26:45;;;;;;;56.47;28.08;;;;;;;;;;5051120;28;20044;-67
2022/11/26 13:29:37;;;;;;;71.75;32.60;;;;;;;;;;5039497;28;20063;-67
2022/11/26 13:32:03;;;;;;;55.97;27.45;;;;;;;;;;5056254;28;20056;-68
2022/11/26 13:34:36;;;;;;;56.80;27.83;;;;;;;;;;5054229;28;22969;-67
2022/11/26 13:37:11;;;;;;;57.80;27.23;;;;;;;;;;5057924;28;20045;-68
2022/11/26 13:39:56;;;;;;;55.83;26.70;;;;;;;;;;5058367;28;20049;-68
2022/11/26 13:42:28;;;;;;;65.22;27.55;;;;;;;;;;5051260;28;20139;-67
2022/11/26 13:45:03;;;;;;;59.80;27.45;;;;;;;;;;5054024;28;20040;-67
2022/11/26 13:47:42;;;;;;;53.20;28.92;;;;;;;;;;5057789;28;20082;-68
2022/11/26 13:50:14;;;;;;;61.60;28.27;;;;;;;;;;5054052;28;20052;-69
2022/11/26 13:52:47;;;;;;;60.08;27.70;;;;;;;;;;5053246;28;20070;-67
2022/11/26 13:55:35;;;;;;;56.40;26.42;;;;;;;;;;5057611;28;20512;-67
2022/11/26 13:58:04;;;;;;;62.50;26.60;;;;;;;;;;5055335;28;20181;-67
2022/11/26 14:00:32;;;;;;;54.95;28.05;;;;;;;;;;5058991;28;20048;-68
2022/11/26 14:02:59;;;;;;;67.45;27.92;;;;;;;;;;5048699;28;20072;-68
2022/11/26 14:05:45;;;;;;;65.13;29.60;;;;;;;;;;5058361;28;20056;-69
2022/11/26 14:08:30;;;;;;;66.80;29.88;;;;;;;;;;5051694;28;20044;-68
2022/11/26 14:10:56;;;;;;;63.67;28.40;;;;;;;;;;5042555;28;20048;-67
2022/11/26 14:13:22;;;;;;;66.50;29.70;;;;;;;;;;5057872;28;20052;-68
2022/11/26 14:15:52;;;;;;;66.60;29.52;;;;;;;;;;5055750;28;20102;-68
2022/11/26 14:18:38;;;;;;;68.95;29.45;;;;;;;;;;5054652;28;20044;-68
2022/11/26 14:21:11;;;;;;;61.97;27.63;;;;;;;;;;5058493;28;20136;-68
2022/11/26 14:23:43;;;;;;;73.15;30.45;;;;;;;;;;5058737;28;20078;-68
2022/11/26 14:26:18;;;;;;;62.22;29.20;;;;;;;;;;5055198;28;20076;-68
2022/11/26 14:28:44;;;;;;;59.78;28.15;;;;;;;;;;5057335;28;20037;-68
2022/11/26 14:31:13;;;;;;;70.18;30.52;;;;;;;;;;5053907;28;20048;-68
2022/11/26 14:33:43;;;;;;;72.40;29.92;;;;;;;;;;5054915;28;20052;-69